Time;durP1;ratioP1;P1;durP2;ratioP2;P2;SDS_P1;SDS_P2;PMS_P1;PMS_P2;Temp;Humidity;BMP_temperature;BMP_pressure;BME280_temperature;BME280_humidity;BME280_pressure;Samples;Min_cycle;Max_cycle;Signal;HPM_P1;HPM_P2
2023/10/26 00:01:11;;;;;;;13.57;9.30;;;10.10;99.90;;;;;;4972654;28;89442;-33
2023/10/26 00:03:36;;;;;;;15.63;9.55;;;10.10;99.90;;;;;;4960070;28;90355;-32
2023/10/26 00:06:02;;;;;;;20.45;9.15;;;10.10;99.90;;;;;;4974402;28;91293;-32
2023/10/26 00:08:28;;;;;;;15.52;8.43;;;10.10;99.90;;;;;;4979360;28;89462;-32
2023/10/26 00:10:53;;;;;;;21.23;10.15;;;10.10;99.90;;;;;;4979657;28;87529;-31
2023/10/26 00:13:19;;;;;;;12.95;10.40;;;10.10;99.90;;;;;;4977912;28;90043;-31
2023/10/26 00:15:45;;;;;;;13.85;10.05;;;10.10;99.90;;;;;;4978033;28;90107;-32
2023/10/26 00:18:11;;;;;;;13.15;9.73;;;10.10;99.90;;;;;;4962793;28;90123;-33
2023/10/26 00:20:37;;;;;;;16.08;11.15;;;10.10;99.90;;;;;;4959602;28;89089;-33
2023/10/26 00:23:05;;;;;;;15.35;10.85;;;10.10;99.90;;;;;;4971253;28;90325;-32
2023/10/26 00:25:31;;;;;;;;;;;10.00;99.90;;;;;;4969517;28;90478;-31
2023/10/26 00:27:58;;;;;;;13.57;9.68;;;10.10;99.90;;;;;;4980097;28;90210;-32
2023/10/26 00:30:24;;;;;;;16.07;11.50;;;10.00;99.90;;;;;;4979813;28;88875;-33
2023/10/26 00:32:50;;;;;;;14.10;11.32;;;10.10;99.90;;;;;;4977397;28;89796;-31
2023/10/26 00:35:16;;;;;;;19.90;11.15;;;10.10;99.90;;;;;;4978342;28;89767;-33
2023/10/26 00:37:41;;;;;;;23.73;11.48;;;10.10;99.90;;;;;;4960974;28;89682;-33
2023/10/26 00:40:07;;;;;;;18.23;12.07;;;10.10;99.90;;;;;;4958338;28;88542;-33
2023/10/26 00:42:33;;;;;;;12.82;9.63;;;10.10;99.90;;;;;;4958560;28;90495;-34
2023/10/26 00:44:59;;;;;;;24.88;12.75;;;10.20;99.90;;;;;;4959175;28;90270;-32
2023/10/26 00:47:25;;;;;;;16.98;11.20;;;10.20;99.90;;;;;;4958611;28;91238;-32
2023/10/26 00:49:52;;;;;;;18.85;14.30;;;10.20;99.90;;;;;;4970419;28;88162;-30
2023/10/26 00:52:17;;;;;;;15.65;11.15;;;10.30;99.90;;;;;;4976710;28;89931;-31
2023/10/26 00:54:43;;;;;;;19.90;12.98;;;10.40;99.90;;;;;;4978109;28;89142;-33
2023/10/26 00:57:09;;;;;;;20.88;14.07;;;10.30;99.90;;;;;;4977133;28;89076;-32
2023/10/26 00:59:36;;;;;;;20.70;15.07;;;10.30;99.90;;;;;;4978322;28;89655;-32
2023/10/26 01:02:02;;;;;;;22.17;14.10;;;10.20;99.90;;;;;;4978450;28;90323;-32
2023/10/26 01:04:28;;;;;;;22.70;15.30;;;10.30;99.90;;;;;;4976511;28;89848;-30
2023/10/26 01:06:54;;;;;;;21.70;15.50;;;10.20;99.90;;;;;;4977642;28;89788;-32
2023/10/26 01:09:21;;;;;;;23.90;14.77;;;10.20;99.90;;;;;;4978304;28;88496;-33
2023/10/26 01:11:46;;;;;;;26.25;16.23;;;10.20;99.90;;;;;;4976618;28;89802;-32
2023/10/26 01:14:13;;;;;;;27.38;17.40;;;10.20;99.90;;;;;;4966272;28;90313;-33
2023/10/26 01:16:39;;;;;;;24.50;16.63;;;10.10;99.90;;;;;;4970044;28;90502;-31
2023/10/26 01:19:06;;;;;;;28.10;16.33;;;10.10;99.90;;;;;;4940575;28;89140;-30
2023/10/26 01:21:49;;;;;;;29.95;18.08;;;10.10;99.90;;;;;;4962692;28;90591;-33
2023/10/26 01:24:15;;;;;;;20.67;14.20;;;10.10;99.90;;;;;;4964948;28;89913;-31
2023/10/26 01:26:40;;;;;;;24.20;16.80;;;10.10;99.90;;;;;;4965818;28;89389;-33
2023/10/26 01:29:06;;;;;;;26.48;16.67;;;10.10;99.90;;;;;;4965183;28;88632;-33
2023/10/26 01:31:32;;;;;;;28.80;18.15;;;10.10;99.90;;;;;;4977722;28;90641;-31
2023/10/26 01:33:58;;;;;;;33.78;17.42;;;10.10;99.90;;;;;;4965674;28;89852;-31
2023/10/26 01:36:24;;;;;;;28.92;18.45;;;10.10;99.90;;;;;;4958899;28;89249;-30
2023/10/26 01:38:49;;;;;;;27.60;18.75;;;10.10;99.90;;;;;;4959373;28;90813;-33
2023/10/26 01:41:15;;;;;;;43.95;33.15;;;10.20;99.90;;;;;;4958950;28;89810;-33
2023/10/26 01:43:40;;;;;;;26.27;17.85;;;10.20;99.90;;;;;;4962921;28;90057;-32
2023/10/26 01:46:06;;;;;;;29.85;21.35;;;10.30;99.90;;;;;;4980781;28;89874;-32
2023/10/26 01:48:32;;;;;;;27.75;17.33;;;10.30;99.90;;;;;;4980824;28;89072;-33
2023/10/26 01:50:57;;;;;;;41.03;20.63;;;10.40;99.90;;;;;;4955136;28;89828;-31
2023/10/26 01:53:24;;;;;;;28.35;16.90;;;10.40;99.90;;;;;;4974045;28;89934;-30
2023/10/26 01:55:50;;;;;;;28.63;17.83;;;10.30;99.90;;;;;;4962184;28;89757;-33
2023/10/26 01:58:15;;;;;;;28.65;16.58;;;10.20;99.90;;;;;;4975716;28;89426;-31
2023/10/26 02:00:41;;;;;;;40.70;20.95;;;10.20;99.90;;;;;;4972063;28;90437;-31
2023/10/26 02:03:07;;;;;;;33.58;18.60;;;10.10;99.90;;;;;;4975440;28;89908;-32
2023/10/26 02:05:33;;;;;;;31.73;19.27;;;10.10;99.90;;;;;;4943924;28;90512;-36
2023/10/26 02:07:59;;;;;;;34.85;20.20;;;10.10;99.90;;;;;;4978840;28;88425;-33
2023/10/26 02:10:29;;;;;;;32.08;19.08;;;10.10;99.90;;;;;;4980772;28;90155;-30
2023/10/26 02:12:55;;;;;;;24.50;17.13;;;10.10;99.90;;;;;;4980223;28;90033;-34
2023/10/26 02:15:21;;;;;;;33.10;21.33;;;10.10;99.90;;;;;;4967273;28;90230;-31
2023/10/26 02:17:47;;;;;;;31.85;22.15;;;10.10;99.90;;;;;;4980626;28;88694;-30
2023/10/26 02:20:12;;;;;;;29.08;16.48;;;10.20;99.90;;;;;;4980374;28;88271;-32
2023/10/26 02:22:38;;;;;;;33.40;19.63;;;10.10;99.90;;;;;;4979958;28;89733;-33
2023/10/26 02:25:04;;;;;;;31.08;17.05;;;10.10;99.90;;;;;;4979619;28;89650;-33
2023/10/26 02:27:31;;;;;;;38.17;20.92;;;10.10;99.90;;;;;;4979336;28;90330;-30
2023/10/26 02:29:57;;;;;;;34.90;21.85;;;10.10;99.90;;;;;;4980120;28;90160;-31
2023/10/26 02:32:22;;;;;;;30.25;20.85;;;10.10;99.90;;;;;;4979264;28;90406;-31
2023/10/26 02:34:48;;;;;;;33.83;21.88;;;10.10;99.90;;;;;;4977935;28;91031;-31
2023/10/26 02:37:15;;;;;;;30.42;17.98;;;10.10;99.90;;;;;;4980028;28;88664;-31
2023/10/26 02:39:41;;;;;;;34.40;20.17;;;10.10;99.90;;;;;;4978406;28;89899;-32
2023/10/26 02:42:06;;;;;;;34.35;20.15;;;10.00;99.90;;;;;;4978962;28;90399;-31
2023/10/26 02:44:32;;;;;;;29.05;17.63;;;10.00;99.90;;;;;;4980441;28;88537;-30
2023/10/26 02:46:57;;;;;;;28.02;17.15;;;10.00;99.90;;;;;;4978721;28;89687;-33
2023/10/26 02:49:23;;;;;;;22.63;15.27;;;10.00;99.90;;;;;;4980171;28;90075;-32
2023/10/26 02:51:48;;;;;;;34.47;19.45;;;9.90;99.90;;;;;;4976409;28;89780;-30
2023/10/26 02:54:15;;;;;;;31.30;19.10;;;9.90;99.90;;;;;;4978783;28;90195;-30
2023/10/26 02:56:40;;;;;;;30.77;16.00;;;9.90;99.90;;;;;;4977953;28;88861;-33
2023/10/26 02:59:06;;;;;;;28.08;17.83;;;9.90;99.90;;;;;;4972043;28;89993;-32
2023/10/26 03:01:33;;;;;;;29.70;19.15;;;9.90;99.90;;;;;;4973276;28;91239;-31
2023/10/26 03:04:01;;;;;;;33.00;21.75;;;9.90;99.90;;;;;;4971480;28;89343;-31
2023/10/26 03:06:27;;;;;;;55.50;19.77;;;9.90;99.90;;;;;;4974322;28;89212;-32
2023/10/26 03:08:52;;;;;;;28.52;18.70;;;9.90;99.90;;;;;;4972347;28;90324;-31
2023/10/26 03:11:18;;;;;;;29.08;17.85;;;9.90;99.90;;;;;;4979017;28;88851;-35
2023/10/26 03:13:43;;;;;;;31.67;18.30;;;9.90;99.90;;;;;;4979693;28;89934;-30
2023/10/26 03:16:09;;;;;;;22.35;15.30;;;9.90;99.90;;;;;;4978241;28;90248;-31
2023/10/26 03:18:36;;;;;;;31.02;21.38;;;9.90;99.90;;;;;;4960124;28;88626;-31
2023/10/26 03:21:02;;;;;;;33.50;22.10;;;9.90;99.90;;;;;;4973299;28;90106;-32
2023/10/26 03:23:28;;;;;;;28.92;18.10;;;9.90;99.90;;;;;;4961027;28;89800;-32
2023/10/26 03:25:54;;;;;;;28.58;19.35;;;9.90;99.90;;;;;;4973396;28;89727;-30
2023/10/26 03:28:19;;;;;;;29.48;15.50;;;9.90;99.90;;;;;;4967376;28;89745;-30
2023/10/26 03:30:45;;;;;;;36.25;22.48;;;9.90;99.90;;;;;;4967869;28;89440;-30
2023/10/26 03:33:10;;;;;;;26.65;17.70;;;9.90;99.90;;;;;;4968221;28;88656;-32
2023/10/26 03:35:36;;;;;;;29.77;18.98;;;9.90;99.90;;;;;;4966386;28;88131;-31
2023/10/26 03:38:02;;;;;;;29.88;18.67;;;9.90;99.90;;;;;;4961538;28;90612;-31
2023/10/26 03:40:27;;;;;;;34.45;18.25;;;9.80;99.90;;;;;;4961412;28;90501;-32
2023/10/26 03:42:53;;;;;;;34.58;17.95;;;9.90;99.90;;;;;;4978959;28;90615;-31
2023/10/26 03:45:18;;;;;;;26.92;17.25;;;10.00;99.90;;;;;;4967703;28;88591;-32
2023/10/26 03:47:44;;;;;;;27.75;19.55;;;10.00;99.90;;;;;;4954192;28;90080;-31
2023/10/26 03:50:10;;;;;;;28.98;18.75;;;9.90;99.90;;;;;;4973700;28;89339;-31
2023/10/26 03:52:36;;;;;;;28.60;18.27;;;10.00;99.90;;;;;;4966490;28;89614;-32
2023/10/26 03:55:02;;;;;;;32.60;18.10;;;9.90;99.90;;;;;;4961230;28;89081;-30
2023/10/26 03:57:28;;;;;;;27.88;17.02;;;9.90;99.90;;;;;;4971898;28;90677;-30
2023/10/26 03:59:53;;;;;;;33.40;20.90;;;9.90;99.90;;;;;;4974651;28;89178;-31
2023/10/26 04:02:19;;;;;;;28.95;16.95;;;9.90;99.90;;;;;;4979125;28;89330;-33
2023/10/26 04:04:44;;;;;;;30.10;17.65;;;9.90;99.90;;;;;;4977183;28;88540;-31
2023/10/26 04:07:10;;;;;;;29.02;17.05;;;9.80;99.90;;;;;;4978851;28;89890;-31
2023/10/26 04:09:36;;;;;;;25.92;17.25;;;9.80;99.90;;;;;;4978140;28;91149;-32
2023/10/26 04:12:02;;;;;;;32.47;18.00;;;9.80;99.90;;;;;;4978152;28;89998;-33
2023/10/26 04:14:28;;;;;;;37.88;15.95;;;9.80;99.90;;;;;;4978857;28;88734;-31
2023/10/26 04:16:53;;;;;;;30.00;18.05;;;9.80;99.90;;;;;;4971779;28;90019;-31
2023/10/26 04:19:19;;;;;;;29.95;16.45;;;9.80;99.90;;;;;;4971238;28;89785;-32
2023/10/26 04:21:45;;;;;;;27.70;16.38;;;9.80;99.90;;;;;;4964748;28;89328;-32
2023/10/26 04:24:10;;;;;;;29.33;17.55;;;9.80;99.90;;;;;;4979052;28;87676;-31
2023/10/26 04:26:36;;;;;;;25.75;18.42;;;9.80;99.90;;;;;;4958753;28;89698;-31
2023/10/26 04:29:02;;;;;;;29.58;16.88;;;9.80;99.90;;;;;;4958641;28;90452;-32
2023/10/26 04:31:27;;;;;;;27.00;17.20;;;9.80;99.90;;;;;;4965363;28;90077;-32
2023/10/26 04:33:53;;;;;;;26.20;16.02;;;9.80;99.90;;;;;;4965316;28;87698;-31
2023/10/26 04:36:21;;;;;;;28.23;17.17;;;9.80;99.90;;;;;;4959221;28;89993;-33
2023/10/26 04:38:46;;;;;;;30.83;20.42;;;9.80;99.90;;;;;;4958731;28;91353;-31
2023/10/26 04:41:12;;;;;;;30.65;16.67;;;9.80;99.90;;;;;;4965276;28;90498;-31
2023/10/26 04:43:38;;;;;;;27.90;17.92;;;9.80;99.90;;;;;;4960769;28;89147;-33
2023/10/26 04:46:03;;;;;;;30.13;16.38;;;9.80;99.90;;;;;;4958443;28;90603;-33
2023/10/26 04:48:29;;;;;;;29.17;16.85;;;9.80;99.90;;;;;;4958989;28;90311;-32
2023/10/26 04:50:55;;;;;;;26.95;19.08;;;9.80;99.90;;;;;;4959466;28;89808;-33
2023/10/26 04:53:21;;;;;;;34.80;19.20;;;9.80;99.90;;;;;;4976483;28;90608;-35
2023/10/26 04:55:47;;;;;;;28.42;20.13;;;9.80;99.90;;;;;;4965379;28;88719;-33
2023/10/26 04:58:14;;;;;;;32.05;19.23;;;9.70;99.90;;;;;;4960076;28;89661;-31
2023/10/26 05:00:39;;;;;;;26.25;16.48;;;9.80;99.90;;;;;;4969024;28;90260;-33
2023/10/26 05:03:05;;;;;;;32.28;19.27;;;9.80;99.90;;;;;;4971228;28;89292;-33
2023/10/26 05:05:30;;;;;;;29.55;17.10;;;9.80;99.90;;;;;;4974648;28;90236;-33
2023/10/26 05:07:56;;;;;;;26.00;17.77;;;9.80;99.90;;;;;;4971557;28;89596;-31
2023/10/26 05:10:22;;;;;;;29.45;19.08;;;9.90;99.90;;;;;;4978274;28;89323;-30
2023/10/26 05:12:47;;;;;;;28.63;19.02;;;9.90;99.90;;;;;;4977635;28;89724;-33
2023/10/26 05:15:13;;;;;;;28.85;18.58;;;9.80;99.90;;;;;;4976088;28;90952;-32
2023/10/26 05:17:39;;;;;;;25.73;15.70;;;9.80;99.90;;;;;;4964000;28;90655;-33
2023/10/26 05:20:05;;;;;;;25.67;15.93;;;9.70;99.90;;;;;;4958441;28;90225;-32
2023/10/26 05:22:32;;;;;;;26.40;16.45;;;9.70;99.90;;;;;;4958220;28;89109;-32
2023/10/26 05:25:00;;;;;;;27.65;18.55;;;9.70;99.90;;;;;;4959412;28;91523;-34
2023/10/26 05:27:26;;;;;;;26.05;15.93;;;9.70;99.90;;;;;;4971526;28;88887;-32
2023/10/26 05:29:52;;;;;;;25.38;17.48;;;9.70;99.90;;;;;;4975684;28;89310;-31
2023/10/26 05:32:17;;;;;;;32.42;16.67;;;9.60;99.90;;;;;;4973369;28;88304;-33
2023/10/26 05:34:43;;;;;;;21.55;15.13;;;9.60;99.90;;;;;;4975679;28;90075;-32
2023/10/26 05:37:09;;;;;;;26.83;16.35;;;9.60;99.90;;;;;;4970992;28;89892;-33
2023/10/26 05:39:34;;;;;;;28.30;18.80;;;9.60;99.90;;;;;;4967336;28;90252;-33
2023/10/26 05:42:03;;;;;;;33.28;20.60;;;9.60;99.90;;;;;;4960760;28;89987;-33
2023/10/26 05:44:30;;;;;;;30.00;20.17;;;9.60;99.90;;;;;;4967317;28;89928;-30
2023/10/26 05:46:56;;;;;;;24.75;15.88;;;9.60;99.90;;;;;;4961648;28;89716;-34
2023/10/26 05:49:21;;;;;;;31.83;17.52;;;9.60;99.90;;;;;;4967801;28;88677;-32
2023/10/26 05:54:16;;;;;;;32.67;18.85;;;9.60;99.90;;;;;;4953728;28;90023;-33
2023/10/26 05:56:41;;;;;;;28.75;18.50;;;9.70;99.90;;;;;;4955069;28;89930;-32
2023/10/26 05:59:07;;;;;;;34.63;19.52;;;9.70;99.90;;;;;;4955179;28;90148;-32
2023/10/26 06:01:32;;;;;;;26.90;18.23;;;9.70;99.90;;;;;;4954557;28;89690;-31
2023/10/26 06:03:58;;;;;;;30.52;19.88;;;9.60;99.90;;;;;;4955509;28;90343;-31
2023/10/26 06:06:24;;;;;;;27.23;17.52;;;9.70;99.90;;;;;;4954772;28;89517;-31
2023/10/26 06:08:49;;;;;;;32.42;18.13;;;9.60;99.90;;;;;;4954748;28;90424;-32
2023/10/26 06:11:16;;;;;;;27.05;16.63;;;9.60;99.90;;;;;;4952597;28;89309;-33
2023/10/26 06:13:42;;;;;;;28.77;18.35;;;9.60;99.90;;;;;;4953898;28;90131;-32
2023/10/26 06:16:12;;;;;;;26.30;18.08;;;9.50;99.90;;;;;;4953408;28;89194;-32
2023/10/26 06:18:38;;;;;;;23.30;15.05;;;9.50;99.90;;;;;;4950513;28;89041;-31
2023/10/26 06:21:04;;;;;;;27.50;18.58;;;9.50;99.90;;;;;;4954825;28;89845;-34
2023/10/26 06:23:30;;;;;;;31.95;19.70;;;9.50;99.90;;;;;;4955480;28;91669;-30
2023/10/26 06:26:00;;;;;;;24.38;14.40;;;9.40;99.90;;;;;;4954335;28;90295;-31
2023/10/26 06:28:27;;;;;;;27.25;16.55;;;9.40;99.90;;;;;;4957083;28;89885;-30
2023/10/26 06:30:54;;;;;;;25.77;17.02;;;9.40;99.90;;;;;;4958005;28;89506;-33
2023/10/26 06:33:20;;;;;;;28.58;17.52;;;9.40;99.90;;;;;;4939652;28;90142;-31
2023/10/26 06:35:46;;;;;;;23.17;16.42;;;9.40;99.90;;;;;;4957297;28;89507;-31
2023/10/26 06:38:11;;;;;;;23.48;14.57;;;9.40;99.90;;;;;;4958439;28;89896;-32
2023/10/26 06:40:37;;;;;;;27.90;17.23;;;9.30;99.90;;;;;;4958049;28;89305;-34
2023/10/26 06:43:03;;;;;;;32.25;18.05;;;9.30;99.90;;;;;;4957516;28;90094;-32
2023/10/26 06:45:29;;;;;;;34.70;17.17;;;9.30;99.90;;;;;;4958712;28;89736;-31
2023/10/26 06:47:54;;;;;;;33.00;19.42;;;9.30;99.90;;;;;;4957185;28;89645;-31
2023/10/26 06:50:22;;;;;;;32.20;17.88;;;9.30;99.90;;;;;;4958195;28;89830;-30
2023/10/26 06:52:47;;;;;;;33.28;17.17;;;9.30;99.90;;;;;;4956564;28;90216;-32
2023/10/26 06:55:16;;;;;;;30.20;17.48;;;9.30;99.90;;;;;;4956753;28;90859;-33
2023/10/26 06:57:43;;;;;;;29.48;17.52;;;9.40;99.90;;;;;;4957737;28;90973;-31
2023/10/26 07:00:09;;;;;;;30.73;18.77;;;9.30;99.90;;;;;;4957727;28;89437;-29
2023/10/26 07:02:36;;;;;;;29.25;16.88;;;9.40;99.90;;;;;;4956964;28;89326;-31
2023/10/26 07:05:03;;;;;;;33.80;19.85;;;9.40;99.90;;;;;;4957887;28;89555;-32
2023/10/26 07:07:30;;;;;;;34.60;18.55;;;9.40;99.90;;;;;;4956830;28;89009;-32
2023/10/26 07:09:57;;;;;;;29.60;18.07;;;9.40;99.90;;;;;;4957221;28;89200;-33
2023/10/26 07:12:22;;;;;;;31.33;18.38;;;9.50;99.90;;;;;;4957942;28;90412;-33
2023/10/26 07:14:53;;;;;;;39.35;19.00;;;9.50;99.90;;;;;;4957392;28;89379;-31
2023/10/26 07:17:23;;;;;;;27.55;16.95;;;9.50;99.90;;;;;;4957644;28;89918;-31
2023/10/26 07:19:50;;;;;;;26.02;15.88;;;9.50;99.90;;;;;;4957168;28;90216;-34
2023/10/26 07:22:16;;;;;;;29.05;17.00;;;9.60;99.90;;;;;;4957770;28;88853;-32
2023/10/26 07:24:41;;;;;;;26.27;16.75;;;9.60;99.90;;;;;;4956793;28;89640;-33
2023/10/26 07:27:07;;;;;;;27.42;18.88;;;9.60;99.90;;;;;;4957838;28;89624;-33
2023/10/26 07:29:33;;;;;;;31.00;17.88;;;9.60;99.90;;;;;;4956688;28;90161;-36
2023/10/26 07:31:59;;;;;;;25.95;15.65;;;9.60;99.90;;;;;;4956856;28;90212;-32
2023/10/26 07:34:25;;;;;;;28.77;18.83;;;9.80;99.90;;;;;;4956584;28;89832;-30
2023/10/26 07:36:51;;;;;;;29.77;15.57;;;9.80;99.90;;;;;;4957221;28;89810;-33
2023/10/26 07:39:16;;;;;;;32.92;21.38;;;9.80;99.90;;;;;;4957611;28;88653;-31
2023/10/26 07:41:43;;;;;;;34.72;19.63;;;9.80;99.90;;;;;;4956747;28;90032;-30
2023/10/26 07:44:09;;;;;;;29.65;20.05;;;9.80;99.90;;;;;;4956457;28;90509;-31
2023/10/26 07:46:35;;;;;;;39.05;18.52;;;9.90;99.90;;;;;;4940481;28;90331;-33
2023/10/26 07:49:01;;;;;;;35.38;19.40;;;9.90;99.90;;;;;;4956917;28;89672;-33
2023/10/26 07:51:27;;;;;;;33.97;19.65;;;9.90;99.90;;;;;;4957406;28;90351;-34
2023/10/26 07:53:54;;;;;;;35.63;20.98;;;10.00;99.90;;;;;;4956950;28;89568;-31
2023/10/26 07:56:19;;;;;;;29.48;17.52;;;10.10;99.90;;;;;;4956401;28;88915;-31
2023/10/26 07:58:45;;;;;;;35.85;20.02;;;10.20;99.90;;;;;;4957282;28;88537;-31
2023/10/26 08:01:10;;;;;;;39.20;24.30;;;10.20;99.90;;;;;;4957137;28;89680;-32
2023/10/26 08:03:36;;;;;;;36.72;20.70;;;10.10;99.90;;;;;;4956791;28;90140;-32
2023/10/26 08:06:02;;;;;;;28.20;18.27;;;10.20;99.90;;;;;;4956306;28;89734;-32
2023/10/26 08:08:29;;;;;;;32.55;15.68;;;10.30;99.90;;;;;;4955934;28;89001;-33
2023/10/26 08:11:08;;;;;;;31.40;21.58;;;10.30;99.90;;;;;;4956843;28;90378;-33
2023/10/26 08:13:33;;;;;;;29.55;18.33;;;10.20;99.90;;;;;;4956147;28;88632;-33
2023/10/26 08:16:00;;;;;;;29.20;17.83;;;10.30;99.90;;;;;;4956283;28;90222;-31
2023/10/26 08:18:26;;;;;;;30.23;19.95;;;10.30;99.90;;;;;;4956651;28;88923;-31
2023/10/26 08:20:51;;;;;;;21.50;14.73;;;10.40;99.90;;;;;;4956495;28;90387;-31
2023/10/26 08:23:17;;;;;;;28.73;17.52;;;10.40;99.90;;;;;;4955510;28;89791;-32
2023/10/26 08:25:43;;;;;;;28.83;16.98;;;10.40;99.90;;;;;;4938607;28;90155;-33
2023/10/26 08:28:09;;;;;;;28.98;18.23;;;10.30;99.90;;;;;;4956070;28;88360;-32
2023/10/26 08:30:34;;;;;;;30.15;16.75;;;10.20;99.90;;;;;;4955918;28;89530;-34
2023/10/26 08:33:04;;;;;;;26.85;15.65;;;10.30;99.90;;;;;;4954808;28;90976;-30
2023/10/26 08:35:30;;;;;;;24.15;16.33;;;10.30;99.90;;;;;;4938368;28;90200;-35
2023/10/26 08:37:55;;;;;;;26.10;16.15;;;10.30;99.90;;;;;;4955833;28;89207;-32
2023/10/26 08:40:21;;;;;;;27.20;16.52;;;10.40;99.90;;;;;;4956386;28;89207;-31
2023/10/26 08:42:47;;;;;;;26.75;18.30;;;10.40;99.90;;;;;;4955692;28;89544;-32
2023/10/26 08:45:21;;;;;;;24.52;16.35;;;10.40;99.90;;;;;;4957082;28;90539;-31
2023/10/26 08:47:49;;;;;;;26.08;15.60;;;10.50;99.90;;;;;;4956087;28;88392;-33
2023/10/26 08:50:15;;;;;;;21.05;13.40;;;10.40;99.90;;;;;;4954755;28;89630;-31
2023/10/26 08:52:41;;;;;;;24.80;14.60;;;10.50;99.90;;;;;;4955442;28;89672;-32
2023/10/26 08:55:08;;;;;;;25.52;17.73;;;10.50;99.90;;;;;;4955420;28;91107;-32
2023/10/26 08:57:33;;;;;;;29.50;17.98;;;10.50;99.90;;;;;;4955391;28;89242;-36
2023/10/26 08:59:59;;;;;;;35.22;16.05;;;10.50;99.90;;;;;;4955517;28;89502;-36
2023/10/26 09:02:25;;;;;;;24.98;15.10;;;10.50;99.90;;;;;;4937512;28;89936;-34
2023/10/26 09:05:04;;;;;;;27.95;14.40;;;10.40;99.90;;;;;;4955921;28;89732;-35
2023/10/26 09:07:30;;;;;;;26.25;15.48;;;10.40;99.90;;;;;;4950243;28;89937;-33
2023/10/26 09:09:56;;;;;;;27.45;16.27;;;10.40;99.90;;;;;;4955771;28;89620;-34
2023/10/26 09:12:22;;;;;;;21.30;15.65;;;10.40;99.90;;;;;;4937503;28;89932;-35
2023/10/26 09:15:06;;;;;;;28.27;16.02;;;10.50;99.90;;;;;;4956472;28;89556;-33
2023/10/26 09:17:33;;;;;;;27.67;17.38;;;10.60;99.90;;;;;;4955766;28;88661;-35
2023/10/26 09:20:15;;;;;;;21.17;13.23;;;10.60;99.90;;;;;;4953634;28;91460;-34
2023/10/26 09:22:42;;;;;;;25.42;14.55;;;10.70;99.90;;;;;;4953347;28;90309;-35
2023/10/26 09:25:12;;;;;;;22.50;12.85;;;10.80;99.90;;;;;;4954617;28;90449;-33
2023/10/26 09:27:39;;;;;;;22.95;15.35;;;10.90;99.90;;;;;;4954782;28;89109;-34
2023/10/26 09:30:06;;;;;;;24.92;15.85;;;10.80;99.90;;;;;;4954474;28;91353;-34
2023/10/26 09:32:35;;;;;;;22.92;15.70;;;10.80;99.90;;;;;;4953931;28;89556;-35
2023/10/26 09:35:02;;;;;;;24.20;16.67;;;10.80;99.90;;;;;;4955465;28;90202;-35
2023/10/26 09:37:29;;;;;;;28.20;17.05;;;10.80;99.90;;;;;;4954017;28;89825;-31
2023/10/26 09:39:56;;;;;;;23.27;14.27;;;10.80;99.90;;;;;;4955495;28;89320;-32
2023/10/26 09:42:23;;;;;;;220.95;101.15;;;10.70;99.90;;;;;;4954890;28;88430;-32
2023/10/26 09:44:50;;;;;;;49.45;30.00;;;10.70;99.90;;;;;;4954072;28;90162;-32
2023/10/26 09:47:17;;;;;;;133.55;73.85;;;10.80;99.90;;;;;;4954090;28;89496;-34
2023/10/26 09:49:42;;;;;;;113.55;58.03;;;10.80;99.90;;;;;;4956038;28;90744;-32
2023/10/26 09:52:08;;;;;;;30.50;21.85;;;11.00;99.90;;;;;;4953312;28;89627;-31
2023/10/26 09:54:36;;;;;;;196.80;97.15;;;11.10;99.90;;;;;;4954985;28;89796;-35
2023/10/26 09:57:21;;;;;;;32.75;19.27;;;11.00;99.90;;;;;;4955606;28;90954;-32
2023/10/26 09:59:52;;;;;;;26.55;17.65;;;11.00;99.90;;;;;;4954448;28;89982;-33
2023/10/26 10:02:19;;;;;;;26.88;16.17;;;11.00;99.90;;;;;;4956270;28;90127;-34
2023/10/26 10:04:45;;;;;;;25.35;14.75;;;11.00;99.90;;;;;;4957920;28;89637;-34
2023/10/26 10:07:18;;;;;;;24.95;15.82;;;11.00;99.90;;;;;;4959148;28;90764;-31
2023/10/26 10:10:12;;;;;;;27.85;15.35;;;11.10;99.90;;;;;;4957611;28;90217;-33
2023/10/26 10:12:39;;;;;;;25.02;15.60;;;11.20;99.90;;;;;;4957844;28;90837;-37
2023/10/26 10:15:13;;;;;;;22.77;14.85;;;11.20;99.90;;;;;;4958087;28;90619;-33
2023/10/26 10:17:44;;;;;;;22.80;13.82;;;11.40;99.90;;;;;;4953558;28;90399;-33
2023/10/26 10:20:19;;;;;;;26.52;15.80;;;11.40;99.90;;;;;;4966094;28;90071;-33
2023/10/26 10:22:48;;;;;;;23.23;13.98;;;11.50;99.90;;;;;;4968117;28;90571;-32
2023/10/26 10:25:16;;;;;;;;;;;11.50;99.90;;;;;;4958497;28;91357;-33
2023/10/26 10:28:02;;;;;;;26.63;17.38;;;11.60;99.90;;;;;;4959141;28;89912;-35
2023/10/26 10:30:29;;;;;;;29.20;17.85;;;11.60;99.90;;;;;;4949731;28;90948;-34
2023/10/26 10:32:56;;;;;;;22.10;16.27;;;11.60;99.90;;;;;;4957155;28;90197;-34
2023/10/26 10:35:38;;;;;;;24.92;15.43;;;11.60;99.90;;;;;;4958463;28;89784;-33
2023/10/26 10:38:13;;;;;;;32.13;18.10;;;11.60;99.90;;;;;;4955967;28;89732;-35
2023/10/26 10:40:40;;;;;;;25.15;15.30;;;11.60;99.90;;;;;;4958144;28;91379;-32
2023/10/26 10:43:06;;;;;;;26.42;16.30;;;11.70;99.90;;;;;;4957918;28;89963;-34
2023/10/26 10:45:32;;;;;;;25.90;16.27;;;11.70;99.90;;;;;;4957951;28;89985;-36
2023/10/26 10:47:57;;;;;;;22.02;14.95;;;11.70;99.90;;;;;;4958022;28;89716;-35
2023/10/26 10:50:25;;;;;;;27.33;17.45;;;11.70;99.90;;;;;;4957563;28;90415;-36
2023/10/26 10:52:56;;;;;;;27.93;17.90;;;11.70;99.90;;;;;;4957320;28;90168;-36
2023/10/26 10:55:29;;;;;;;27.20;16.38;;;11.70;99.90;;;;;;4957571;28;89558;-34
2023/10/26 10:57:56;;;;;;;22.90;13.48;;;11.70;99.90;;;;;;4957660;28;89424;-34
2023/10/26 11:00:23;;;;;;;21.55;13.98;;;11.70;99.90;;;;;;4962034;28;90162;-35
2023/10/26 11:02:49;;;;;;;23.52;16.52;;;11.90;99.90;;;;;;4965548;28;91346;-34
2023/10/26 11:05:16;;;;;;;28.40;16.38;;;12.00;99.90;;;;;;4946906;28;90922;-36
2023/10/26 11:07:42;;;;;;;21.80;14.70;;;12.00;99.90;;;;;;4962680;28;88299;-34
2023/10/26 11:10:08;;;;;;;25.88;15.90;;;12.00;99.90;;;;;;4962625;28;90300;-35
2023/10/26 11:12:34;;;;;;;24.33;17.23;;;12.00;99.90;;;;;;4962186;28;89915;-36
2023/10/26 11:15:00;;;;;;;27.40;16.80;;;12.00;99.90;;;;;;4959872;28;89585;-36
2023/10/26 11:17:28;;;;;;;24.02;14.60;;;12.10;99.90;;;;;;4962441;28;89826;-34
2023/10/26 11:19:55;;;;;;;24.58;17.85;;;12.30;99.90;;;;;;4957065;28;89918;-35
2023/10/26 11:22:22;;;;;;;23.23;15.55;;;12.10;99.90;;;;;;4951524;28;90340;-32
2023/10/26 11:24:48;;;;;;;28.77;17.50;;;12.10;99.90;;;;;;4960219;28;89242;-34
2023/10/26 11:27:16;;;;;;;27.80;16.60;;;12.20;99.90;;;;;;4956835;28;90552;-34
2023/10/26 11:29:43;;;;;;;23.87;17.07;;;12.30;99.90;;;;;;4955089;28;90276;-33
2023/10/26 11:32:26;;;;;;;35.93;26.60;;;12.30;99.90;;;;;;4958959;28;89853;-34
2023/10/26 11:35:06;;;;;;;29.95;18.58;;;12.20;99.90;;;;;;4954429;28;89519;-33
2023/10/26 11:37:35;;;;;;;24.45;16.45;;;12.10;99.90;;;;;;4962058;28;87971;-36
2023/10/26 11:40:10;;;;;;;23.48;15.70;;;12.10;99.90;;;;;;4966351;28;90403;-34
2023/10/26 11:42:52;;;;;;;29.73;14.68;;;12.10;99.90;;;;;;4955403;28;89640;-36
2023/10/26 11:45:25;;;;;;;25.67;19.00;;;12.00;99.90;;;;;;4957049;28;90967;-33
2023/10/26 11:47:51;;;;;;;23.35;16.35;;;12.00;99.90;;;;;;4956240;28;88260;-35
2023/10/26 11:50:24;;;;;;;21.92;14.68;;;12.10;99.90;;;;;;4956504;28;91377;-31
2023/10/26 11:52:52;;;;;;;21.85;14.95;;;12.10;99.90;;;;;;4955187;28;91215;-36
2023/10/26 11:55:19;;;;;;;23.53;17.13;;;12.10;99.90;;;;;;4957330;28;90600;-35
2023/10/26 11:57:45;;;;;;;27.55;16.77;;;12.20;99.90;;;;;;4955159;28;89694;-33
2023/10/26 12:00:12;;;;;;;21.35;12.75;;;12.30;99.90;;;;;;4956044;28;89765;-34
2023/10/26 12:02:38;;;;;;;21.23;12.95;;;12.30;99.90;;;;;;4954232;28;90459;-36
2023/10/26 12:05:06;;;;;;;22.33;13.32;;;12.30;99.90;;;;;;4962014;28;90109;-35
2023/10/26 12:07:31;;;;;;;34.03;13.97;;;12.30;99.90;;;;;;4968456;28;88432;-34
2023/10/26 12:09:57;;;;;;;20.60;12.20;;;12.40;99.90;;;;;;4961916;28;90186;-33
2023/10/26 12:12:23;;;;;;;19.02;11.70;;;12.30;99.90;;;;;;4958325;28;90099;-36
2023/10/26 12:14:48;;;;;;;19.30;13.70;;;12.40;99.90;;;;;;4959005;28;89607;-34
2023/10/26 12:17:14;;;;;;;18.80;12.38;;;12.40;99.90;;;;;;4955805;28;89156;-35
2023/10/26 12:19:39;;;;;;;17.70;12.70;;;12.50;99.90;;;;;;4955041;28;90216;-34
2023/10/26 12:22:05;;;;;;;18.98;12.35;;;12.50;99.90;;;;;;4951806;28;89804;-33
2023/10/26 12:24:32;;;;;;;16.67;11.77;;;12.50;99.90;;;;;;4956422;28;89679;-36
2023/10/26 12:26:59;;;;;;;18.05;12.00;;;12.50;99.90;;;;;;4949001;28;88075;-33
2023/10/26 12:29:24;;;;;;;16.98;12.10;;;12.60;99.90;;;;;;4959008;28;90726;-34
2023/10/26 12:31:50;;;;;;;12.25;9.02;;;12.60;99.90;;;;;;4960888;28;90170;-37